sensor_id;sensor_type;location;lat;lon;timestamp;P1;durP1;ratioP1;P2;durP2;ratioP2
22298;SDS011;11317;51.072;17.036;2023-11-19T00:02:24;17.88;;;8.52;;
22298;SDS011;11317;51.072;17.036;2023-11-19T00:04:50;24.95;;;11.43;;
22298;SDS011;11317;51.072;17.036;2023-11-19T00:07:16;20.17;;;10.65;;
22298;SDS011;11317;51.072;17.036;2023-11-19T00:09:42;19.27;;;8.90;;
22298;SDS011;11317;51.072;17.036;2023-11-19T00:12:08;20.02;;;9.55;;
22298;SDS011;11317;51.072;17.036;2023-11-19T00:14:35;17.77;;;9.98;;
22298;SDS011;11317;51.072;17.036;2023-11-19T00:17:01;19.33;;;8.38;;
22298;SDS011;11317;51.072;17.036;2023-11-19T00:19:27;24.35;;;10.82;;
22298;SDS011;11317;51.072;17.036;2023-11-19T00:21:53;20.45;;;9.68;;
22298;SDS011;11317;51.072;17.036;2023-11-19T00:24:19;20.90;;;10.30;;
22298;SDS011;11317;51.072;17.036;2023-11-19T00:26:46;18.02;;;8.75;;
22298;SDS011;11317;51.072;17.036;2023-11-19T00:29:12;22.25;;;9.80;;
22298;SDS011;11317;51.072;17.036;2023-11-19T00:31:39;22.25;;;11.02;;
22298;SDS011;11317;51.072;17.036;2023-11-19T00:34:04;20.80;;;10.75;;
22298;SDS011;11317;51.072;17.036;2023-11-19T00:36:31;22.80;;;8.95;;
22298;SDS011;11317;51.072;17.036;2023-11-19T00:38:57;22.92;;;10.65;;
22298;SDS011;11317;51.072;17.036;2023-11-19T00:41:23;23.50;;;11.32;;
22298;SDS011;11317;51.072;17.036;2023-11-19T00:43:50;25.73;;;11.80;;
22298;SDS011;11317;51.072;17.036;2023-11-19T00:46:16;29.30;;;12.00;;
22298;SDS011;11317;51.072;17.036;2023-11-19T00:48:43;25.25;;;11.07;;
22298;SDS011;11317;51.072;17.036;2023-11-19T00:51:11;20.60;;;10.23;;
22298;SDS011;11317;51.072;17.036;2023-11-19T00:53:37;21.55;;;10.15;;
22298;SDS011;11317;51.072;17.036;2023-11-19T00:56:03;27.30;;;11.50;;
22298;SDS011;11317;51.072;17.036;2023-11-19T00:58:29;23.40;;;12.32;;
22298;SDS011;11317;51.072;17.036;2023-11-19T01:00:55;26.50;;;10.73;;
22298;SDS011;11317;51.072;17.036;2023-11-19T01:03:22;30.23;;;10.20;;
22298;SDS011;11317;51.072;17.036;2023-11-19T01:05:48;26.48;;;11.05;;
22298;SDS011;11317;51.072;17.036;2023-11-19T01:08:14;21.02;;;9.38;;
22298;SDS011;11317;51.072;17.036;2023-11-19T01:10:41;30.67;;;12.60;;
22298;SDS011;11317;51.072;17.036;2023-11-19T01:13:07;23.17;;;10.27;;
22298;SDS011;11317;51.072;17.036;2023-11-19T01:15:33;25.13;;;11.68;;
22298;SDS011;11317;51.072;17.036;2023-11-19T01:17:59;21.40;;;10.15;;
22298;SDS011;11317;51.072;17.036;2023-11-19T01:20:27;30.92;;;11.77;;
22298;SDS011;11317;51.072;17.036;2023-11-19T01:22:53;25.08;;;11.80;;
22298;SDS011;11317;51.072;17.036;2023-11-19T01:25:19;26.77;;;11.93;;
22298;SDS011;11317;51.072;17.036;2023-11-19T01:27:45;26.27;;;10.75;;
22298;SDS011;11317;51.072;17.036;2023-11-19T01:30:11;27.42;;;12.10;;
22298;SDS011;11317;51.072;17.036;2023-11-19T01:32:38;19.35;;;10.75;;
22298;SDS011;11317;51.072;17.036;2023-11-19T01:35:05;16.50;;;9.18;;
22298;SDS011;11317;51.072;17.036;2023-11-19T01:37:31;25.42;;;10.45;;
22298;SDS011;11317;51.072;17.036;2023-11-19T01:39:59;30.77;;;12.13;;
22298;SDS011;11317;51.072;17.036;2023-11-19T01:42:28;25.35;;;10.90;;
22298;SDS011;11317;51.072;17.036;2023-11-19T01:44:57;28.58;;;10.38;;
22298;SDS011;11317;51.072;17.036;2023-11-19T01:47:25;21.40;;;9.98;;
22298;SDS011;11317;51.072;17.036;2023-11-19T01:49:52;24.05;;;11.43;;
22298;SDS011;11317;51.072;17.036;2023-11-19T01:52:18;25.60;;;11.75;;
22298;SDS011;11317;51.072;17.036;2023-11-19T01:54:45;17.48;;;9.25;;
22298;SDS011;11317;51.072;17.036;2023-11-19T01:57:12;20.40;;;9.23;;
22298;SDS011;11317;51.072;17.036;2023-11-19T01:59:39;21.65;;;11.00;;
22298;SDS011;11317;51.072;17.036;2023-11-19T02:02:06;29.98;;;9.98;;
22298;SDS011;11317;51.072;17.036;2023-11-19T02:04:32;24.48;;;11.73;;
22298;SDS011;11317;51.072;17.036;2023-11-19T02:07:00;22.77;;;11.13;;
22298;SDS011;11317;51.072;17.036;2023-11-19T02:09:26;28.40;;;11.70;;
22298;SDS011;11317;51.072;17.036;2023-11-19T02:11:53;25.13;;;10.93;;
22298;SDS011;11317;51.072;17.036;2023-11-19T02:14:21;26.50;;;10.65;;
22298;SDS011;11317;51.072;17.036;2023-11-19T02:16:51;23.98;;;11.30;;
22298;SDS011;11317;51.072;17.036;2023-11-19T02:19:20;23.05;;;9.40;;
22298;SDS011;11317;51.072;17.036;2023-11-19T02:21:46;22.45;;;10.23;;
22298;SDS011;11317;51.072;17.036;2023-11-19T02:24:13;24.30;;;10.43;;
22298;SDS011;11317;51.072;17.036;2023-11-19T02:26:44;30.52;;;11.60;;
22298;SDS011;11317;51.072;17.036;2023-11-19T02:29:18;24.50;;;9.85;;
22298;SDS011;11317;51.072;17.036;2023-11-19T02:31:44;26.73;;;11.48;;
22298;SDS011;11317;51.072;17.036;2023-11-19T02:34:12;20.02;;;9.70;;
22298;SDS011;11317;51.072;17.036;2023-11-19T02:36:38;18.17;;;8.77;;
22298;SDS011;11317;51.072;17.036;2023-11-19T02:39:06;17.92;;;9.63;;
22298;SDS011;11317;51.072;17.036;2023-11-19T02:41:36;22.10;;;10.27;;
22298;SDS011;11317;51.072;17.036;2023-11-19T02:44:04;21.00;;;10.82;;
22298;SDS011;11317;51.072;17.036;2023-11-19T02:46:31;17.33;;;9.68;;
22298;SDS011;11317;51.072;17.036;2023-11-19T02:48:57;21.83;;;10.27;;
22298;SDS011;11317;51.072;17.036;2023-11-19T02:51:23;20.42;;;9.15;;
22298;SDS011;11317;51.072;17.036;2023-11-19T02:53:49;19.20;;;9.38;;
22298;SDS011;11317;51.072;17.036;2023-11-19T02:56:15;18.70;;;9.60;;
22298;SDS011;11317;51.072;17.036;2023-11-19T02:58:45;21.45;;;10.15;;
22298;SDS011;11317;51.072;17.036;2023-11-19T03:01:12;22.38;;;9.68;;
22298;SDS011;11317;51.072;17.036;2023-11-19T03:03:48;24.10;;;10.80;;
22298;SDS011;11317;51.072;17.036;2023-11-19T03:06:19;21.00;;;9.32;;
22298;SDS011;11317;51.072;17.036;2023-11-19T03:08:46;30.52;;;12.10;;
22298;SDS011;11317;51.072;17.036;2023-11-19T03:11:13;29.25;;;11.48;;
22298;SDS011;11317;51.072;17.036;2023-11-19T03:13:39;24.05;;;10.88;;
22298;SDS011;11317;51.072;17.036;2023-11-19T03:16:05;23.77;;;11.20;;
22298;SDS011;11317;51.072;17.036;2023-11-19T03:18:32;21.73;;;9.80;;
22298;SDS011;11317;51.072;17.036;2023-11-19T03:20:58;25.55;;;11.82;;
22298;SDS011;11317;51.072;17.036;2023-11-19T03:23:24;22.88;;;10.70;;
22298;SDS011;11317;51.072;17.036;2023-11-19T03:25:52;20.80;;;10.32;;
22298;SDS011;11317;51.072;17.036;2023-11-19T03:28:19;27.45;;;12.10;;
22298;SDS011;11317;51.072;17.036;2023-11-19T03:30:45;20.27;;;8.95;;
22298;SDS011;11317;51.072;17.036;2023-11-19T03:33:11;19.40;;;10.13;;
22298;SDS011;11317;51.072;17.036;2023-11-19T03:35:37;24.05;;;12.07;;
22298;SDS011;11317;51.072;17.036;2023-11-19T03:38:03;20.92;;;10.27;;
22298;SDS011;11317;51.072;17.036;2023-11-19T03:40:29;25.27;;;9.85;;
22298;SDS011;11317;51.072;17.036;2023-11-19T03:42:58;18.83;;;9.77;;
22298;SDS011;11317;51.072;17.036;2023-11-19T03:45:24;22.15;;;9.43;;
22298;SDS011;11317;51.072;17.036;2023-11-19T03:47:50;16.98;;;9.00;;
22298;SDS011;11317;51.072;17.036;2023-11-19T03:50:16;24.33;;;10.43;;
22298;SDS011;11317;51.072;17.036;2023-11-19T03:52:45;25.58;;;10.65;;
22298;SDS011;11317;51.072;17.036;2023-11-19T03:55:11;20.42;;;8.25;;
22298;SDS011;11317;51.072;17.036;2023-11-19T03:57:38;23.75;;;10.43;;
22298;SDS011;11317;51.072;17.036;2023-11-19T04:00:04;22.33;;;9.90;;
22298;SDS011;11317;51.072;17.036;2023-11-19T04:02:36;25.58;;;11.73;;
22298;SDS011;11317;51.072;17.036;2023-11-19T04:05:02;22.77;;;9.18;;
22298;SDS011;11317;51.072;17.036;2023-11-19T04:07:30;19.90;;;9.35;;
22298;SDS011;11317;51.072;17.036;2023-11-19T04:09:56;19.67;;;8.30;;
22298;SDS011;11317;51.072;17.036;2023-11-19T04:12:23;28.65;;;9.98;;
22298;SDS011;11317;51.072;17.036;2023-11-19T04:14:48;18.45;;;9.55;;
22298;SDS011;11317;51.072;17.036;2023-11-19T04:17:14;24.92;;;9.77;;
22298;SDS011;11317;51.072;17.036;2023-11-19T04:19:40;24.95;;;10.13;;
22298;SDS011;11317;51.072;17.036;2023-11-19T04:22:09;22.42;;;9.52;;
22298;SDS011;11317;51.072;17.036;2023-11-19T04:24:36;24.88;;;9.38;;
22298;SDS011;11317;51.072;17.036;2023-11-19T04:27:02;20.02;;;8.95;;
22298;SDS011;11317;51.072;17.036;2023-11-19T04:29:29;17.40;;;8.73;;
22298;SDS011;11317;51.072;17.036;2023-11-19T04:31:56;19.00;;;8.75;;
22298;SDS011;11317;51.072;17.036;2023-11-19T04:34:22;19.55;;;9.82;;
22298;SDS011;11317;51.072;17.036;2023-11-19T04:36:49;19.90;;;8.82;;
22298;SDS011;11317;51.072;17.036;2023-11-19T04:39:15;19.25;;;9.20;;
22298;SDS011;11317;51.072;17.036;2023-11-19T04:41:47;17.45;;;8.93;;
22298;SDS011;11317;51.072;17.036;2023-11-19T04:44:14;18.30;;;9.07;;
22298;SDS011;11317;51.072;17.036;2023-11-19T04:46:41;17.05;;;7.68;;
22298;SDS011;11317;51.072;17.036;2023-11-19T04:49:10;20.55;;;7.55;;
22298;SDS011;11317;51.072;17.036;2023-11-19T04:51:43;16.88;;;8.38;;
22298;SDS011;11317;51.072;17.036;2023-11-19T04:54:12;19.15;;;9.18;;
22298;SDS011;11317;51.072;17.036;2023-11-19T04:56:38;19.45;;;8.88;;
22298;SDS011;11317;51.072;17.036;2023-11-19T04:59:05;19.50;;;9.10;;
22298;SDS011;11317;51.072;17.036;2023-11-19T05:01:31;18.40;;;8.13;;
22298;SDS011;11317;51.072;17.036;2023-11-19T05:03:58;16.80;;;7.18;;
22298;SDS011;11317;51.072;17.036;2023-11-19T05:06:28;15.18;;;7.68;;
22298;SDS011;11317;51.072;17.036;2023-11-19T05:08:54;20.65;;;9.50;;
22298;SDS011;11317;51.072;17.036;2023-11-19T05:11:21;17.63;;;7.65;;
22298;SDS011;11317;51.072;17.036;2023-11-19T05:13:47;13.65;;;7.13;;
22298;SDS011;11317;51.072;17.036;2023-11-19T05:16:13;20.40;;;8.27;;
22298;SDS011;11317;51.072;17.036;2023-11-19T05:18:39;19.45;;;7.28;;
22298;SDS011;11317;51.072;17.036;2023-11-19T05:21:05;18.80;;;8.75;;
22298;SDS011;11317;51.072;17.036;2023-11-19T05:23:32;15.90;;;7.97;;
22298;SDS011;11317;51.072;17.036;2023-11-19T05:26:01;16.80;;;7.25;;
22298;SDS011;11317;51.072;17.036;2023-11-19T05:28:28;15.82;;;8.10;;
22298;SDS011;11317;51.072;17.036;2023-11-19T05:30:54;19.30;;;7.20;;
22298;SDS011;11317;51.072;17.036;2023-11-19T05:33:20;15.82;;;7.13;;
22298;SDS011;11317;51.072;17.036;2023-11-19T05:35:46;15.30;;;6.70;;
22298;SDS011;11317;51.072;17.036;2023-11-19T05:38:12;13.00;;;6.85;;
22298;SDS011;11317;51.072;17.036;2023-11-19T05:40:39;15.70;;;6.57;;
22298;SDS011;11317;51.072;17.036;2023-11-19T05:43:06;13.85;;;7.38;;
22298;SDS011;11317;51.072;17.036;2023-11-19T05:45:32;11.88;;;6.65;;
22298;SDS011;11317;51.072;17.036;2023-11-19T05:47:58;18.83;;;7.15;;
22298;SDS011;11317;51.072;17.036;2023-11-19T05:50:24;10.52;;;6.55;;
22298;SDS011;11317;51.072;17.036;2023-11-19T05:52:50;18.30;;;8.88;;
22298;SDS011;11317;51.072;17.036;2023-11-19T05:55:18;15.80;;;6.20;;
22298;SDS011;11317;51.072;17.036;2023-11-19T05:57:44;14.65;;;7.80;;
22298;SDS011;11317;51.072;17.036;2023-11-19T06:00:10;14.20;;;6.05;;
22298;SDS011;11317;51.072;17.036;2023-11-19T06:02:38;14.75;;;7.43;;
22298;SDS011;11317;51.072;17.036;2023-11-19T06:05:04;17.10;;;8.50;;
22298;SDS011;11317;51.072;17.036;2023-11-19T06:07:34;18.02;;;7.63;;
22298;SDS011;11317;51.072;17.036;2023-11-19T06:10:01;14.30;;;6.18;;
22298;SDS011;11317;51.072;17.036;2023-11-19T06:12:28;13.18;;;6.30;;
22298;SDS011;11317;51.072;17.036;2023-11-19T06:14:53;14.20;;;6.70;;
22298;SDS011;11317;51.072;17.036;2023-11-19T06:17:19;13.57;;;6.95;;
22298;SDS011;11317;51.072;17.036;2023-11-19T06:19:46;16.50;;;7.28;;
22298;SDS011;11317;51.072;17.036;2023-11-19T06:22:12;15.77;;;7.65;;
22298;SDS011;11317;51.072;17.036;2023-11-19T06:24:38;15.13;;;6.70;;
22298;SDS011;11317;51.072;17.036;2023-11-19T06:27:04;15.93;;;6.55;;
22298;SDS011;11317;51.072;17.036;2023-11-19T06:29:31;11.23;;;6.45;;
22298;SDS011;11317;51.072;17.036;2023-11-19T06:31:57;17.20;;;6.60;;
22298;SDS011;11317;51.072;17.036;2023-11-19T06:34:23;15.68;;;6.70;;
22298;SDS011;11317;51.072;17.036;2023-11-19T06:36:49;11.57;;;6.22;;
22298;SDS011;11317;51.072;17.036;2023-11-19T06:39:15;13.02;;;6.05;;
22298;SDS011;11317;51.072;17.036;2023-11-19T06:41:45;16.52;;;6.43;;
22298;SDS011;11317;51.072;17.036;2023-11-19T06:44:12;12.68;;;6.55;;
22298;SDS011;11317;51.072;17.036;2023-11-19T06:46:38;15.20;;;5.97;;
22298;SDS011;11317;51.072;17.036;2023-11-19T06:49:05;12.35;;;5.78;;
22298;SDS011;11317;51.072;17.036;2023-11-19T06:51:33;12.55;;;5.70;;
22298;SDS011;11317;51.072;17.036;2023-11-19T06:53:59;14.00;;;6.85;;
22298;SDS011;11317;51.072;17.036;2023-11-19T06:56:25;12.95;;;6.35;;
22298;SDS011;11317;51.072;17.036;2023-11-19T06:58:52;15.98;;;7.13;;
22298;SDS011;11317;51.072;17.036;2023-11-19T07:01:18;14.23;;;6.47;;
22298;SDS011;11317;51.072;17.036;2023-11-19T07:03:45;14.73;;;5.85;;
22298;SDS011;11317;51.072;17.036;2023-11-19T07:06:11;12.25;;;5.90;;
22298;SDS011;11317;51.072;17.036;2023-11-19T07:08:43;15.88;;;6.20;;
22298;SDS011;11317;51.072;17.036;2023-11-19T07:11:12;8.13;;;5.45;;
22298;SDS011;11317;51.072;17.036;2023-11-19T07:13:42;8.05;;;4.75;;
22298;SDS011;11317;51.072;17.036;2023-11-19T07:16:08;10.82;;;4.90;;
22298;SDS011;11317;51.072;17.036;2023-11-19T07:18:37;14.02;;;5.85;;
22298;SDS011;11317;51.072;17.036;2023-11-19T07:21:04;11.13;;;5.55;;
22298;SDS011;11317;51.072;17.036;2023-11-19T07:23:30;13.73;;;6.55;;
22298;SDS011;11317;51.072;17.036;2023-11-19T07:25:56;9.40;;;5.95;;
22298;SDS011;11317;51.072;17.036;2023-11-19T07:28:23;11.90;;;6.22;;
22298;SDS011;11317;51.072;17.036;2023-11-19T07:30:50;11.18;;;5.60;;
22298;SDS011;11317;51.072;17.036;2023-11-19T07:33:16;9.65;;;5.00;;
22298;SDS011;11317;51.072;17.036;2023-11-19T07:35:42;11.05;;;5.85;;
22298;SDS011;11317;51.072;17.036;2023-11-19T07:38:09;9.13;;;5.20;;
22298;SDS011;11317;51.072;17.036;2023-11-19T07:40:35;11.43;;;5.70;;
22298;SDS011;11317;51.072;17.036;2023-11-19T07:43:01;10.50;;;5.28;;
22298;SDS011;11317;51.072;17.036;2023-11-19T07:45:27;11.10;;;6.05;;
22298;SDS011;11317;51.072;17.036;2023-11-19T07:47:53;13.07;;;5.85;;
22298;SDS011;11317;51.072;17.036;2023-11-19T07:50:19;13.63;;;4.90;;
22298;SDS011;11317;51.072;17.036;2023-11-19T07:52:45;11.38;;;5.93;;
22298;SDS011;11317;51.072;17.036;2023-11-19T07:55:12;10.55;;;4.75;;
22298;SDS011;11317;51.072;17.036;2023-11-19T07:57:38;12.80;;;6.32;;
22298;SDS011;11317;51.072;17.036;2023-11-19T08:00:04;8.85;;;4.60;;
22298;SDS011;11317;51.072;17.036;2023-11-19T08:02:30;9.98;;;4.70;;
22298;SDS011;11317;51.072;17.036;2023-11-19T08:04:56;13.38;;;5.30;;
22298;SDS011;11317;51.072;17.036;2023-11-19T08:07:22;15.05;;;6.88;;
22298;SDS011;11317;51.072;17.036;2023-11-19T08:09:49;10.68;;;5.65;;
22298;SDS011;11317;51.072;17.036;2023-11-19T08:12:15;13.07;;;5.57;;
22298;SDS011;11317;51.072;17.036;2023-11-19T08:14:42;13.13;;;6.30;;
22298;SDS011;11317;51.072;17.036;2023-11-19T08:17:09;11.48;;;5.95;;
22298;SDS011;11317;51.072;17.036;2023-11-19T08:19:35;10.32;;;5.47;;
22298;SDS011;11317;51.072;17.036;2023-11-19T08:22:01;12.50;;;4.90;;
22298;SDS011;11317;51.072;17.036;2023-11-19T08:24:27;11.55;;;6.15;;
22298;SDS011;11317;51.072;17.036;2023-11-19T08:26:53;10.68;;;5.38;;
22298;SDS011;11317;51.072;17.036;2023-11-19T08:29:20;12.70;;;6.25;;
22298;SDS011;11317;51.072;17.036;2023-11-19T08:31:46;11.15;;;5.10;;
22298;SDS011;11317;51.072;17.036;2023-11-19T08:34:12;10.05;;;5.55;;
22298;SDS011;11317;51.072;17.036;2023-11-19T08:36:38;9.02;;;4.50;;
22298;SDS011;11317;51.072;17.036;2023-11-19T08:39:04;13.60;;;6.32;;
22298;SDS011;11317;51.072;17.036;2023-11-19T08:41:30;12.25;;;5.47;;
22298;SDS011;11317;51.072;17.036;2023-11-19T08:43:57;12.18;;;6.10;;
22298;SDS011;11317;51.072;17.036;2023-11-19T08:46:23;13.25;;;6.10;;
22298;SDS011;11317;51.072;17.036;2023-11-19T08:48:49;15.07;;;6.45;;
22298;SDS011;11317;51.072;17.036;2023-11-19T08:51:15;15.48;;;7.00;;
22298;SDS011;11317;51.072;17.036;2023-11-19T08:53:41;16.90;;;7.32;;
22298;SDS011;11317;51.072;17.036;2023-11-19T08:56:07;16.27;;;7.28;;
22298;SDS011;11317;51.072;17.036;2023-11-19T08:58:33;10.18;;;5.72;;
22298;SDS011;11317;51.072;17.036;2023-11-19T09:00:59;11.93;;;6.68;;
22298;SDS011;11317;51.072;17.036;2023-11-19T09:03:25;11.75;;;5.85;;
22298;SDS011;11317;51.072;17.036;2023-11-19T09:05:52;13.02;;;6.10;;
22298;SDS011;11317;51.072;17.036;2023-11-19T09:08:18;10.85;;;6.10;;
22298;SDS011;11317;51.072;17.036;2023-11-19T09:10:44;11.18;;;5.72;;
22298;SDS011;11317;51.072;17.036;2023-11-19T09:13:11;14.45;;;6.25;;
22298;SDS011;11317;51.072;17.036;2023-11-19T09:15:37;10.90;;;5.60;;
22298;SDS011;11317;51.072;17.036;2023-11-19T09:18:03;9.63;;;5.10;;
22298;SDS011;11317;51.072;17.036;2023-11-19T09:20:30;8.85;;;5.20;;
22298;SDS011;11317;51.072;17.036;2023-11-19T09:23:02;13.73;;;5.85;;
22298;SDS011;11317;51.072;17.036;2023-11-19T09:25:28;16.42;;;6.20;;
22298;SDS011;11317;51.072;17.036;2023-11-19T09:27:54;9.98;;;5.65;;
22298;SDS011;11317;51.072;17.036;2023-11-19T09:30:20;11.57;;;5.15;;
22298;SDS011;11317;51.072;17.036;2023-11-19T09:32:46;9.77;;;5.20;;
22298;SDS011;11317;51.072;17.036;2023-11-19T09:35:12;14.60;;;6.15;;
22298;SDS011;11317;51.072;17.036;2023-11-19T09:37:39;9.88;;;5.22;;
22298;SDS011;11317;51.072;17.036;2023-11-19T09:40:05;12.05;;;5.78;;
22298;SDS011;11317;51.072;17.036;2023-11-19T09:42:38;10.30;;;5.45;;
22298;SDS011;11317;51.072;17.036;2023-11-19T09:45:16;9.35;;;4.43;;
22298;SDS011;11317;51.072;17.036;2023-11-19T09:47:45;8.43;;;4.40;;
22298;SDS011;11317;51.072;17.036;2023-11-19T09:50:16;7.95;;;4.00;;
22298;SDS011;11317;51.072;17.036;2023-11-19T09:52:43;9.73;;;4.55;;
22298;SDS011;11317;51.072;17.036;2023-11-19T09:55:10;12.75;;;7.00;;
22298;SDS011;11317;51.072;17.036;2023-11-19T09:57:37;14.90;;;5.75;;
22298;SDS011;11317;51.072;17.036;2023-11-19T10:00:05;16.40;;;5.63;;
22298;SDS011;11317;51.072;17.036;2023-11-19T10:02:33;13.80;;;5.70;;
22298;SDS011;11317;51.072;17.036;2023-11-19T10:05:04;9.05;;;4.43;;
22298;SDS011;11317;51.072;17.036;2023-11-19T10:07:33;10.88;;;5.30;;
22298;SDS011;11317;51.072;17.036;2023-11-19T10:10:00;9.63;;;5.00;;
22298;SDS011;11317;51.072;17.036;2023-11-19T10:12:27;8.02;;;4.40;;
22298;SDS011;11317;51.072;17.036;2023-11-19T10:14:54;9.70;;;4.95;;
22298;SDS011;11317;51.072;17.036;2023-11-19T10:17:27;9.57;;;4.65;;
22298;SDS011;11317;51.072;17.036;2023-11-19T10:20:00;4.88;;;3.67;;
22298;SDS011;11317;51.072;17.036;2023-11-19T10:22:27;10.32;;;4.90;;
22298;SDS011;11317;51.072;17.036;2023-11-19T10:24:53;6.97;;;4.60;;
22298;SDS011;11317;51.072;17.036;2023-11-19T10:27:19;13.82;;;5.93;;
22298;SDS011;11317;51.072;17.036;2023-11-19T10:29:45;9.65;;;5.07;;
22298;SDS011;11317;51.072;17.036;2023-11-19T10:32:12;9.90;;;5.40;;
22298;SDS011;11317;51.072;17.036;2023-11-19T10:34:40;11.27;;;5.43;;
22298;SDS011;11317;51.072;17.036;2023-11-19T10:37:07;5.97;;;3.75;;
22298;SDS011;11317;51.072;17.036;2023-11-19T10:39:51;8.02;;;4.40;;
22298;SDS011;11317;51.072;17.036;2023-11-19T10:42:21;7.65;;;4.65;;
22298;SDS011;11317;51.072;17.036;2023-11-19T10:44:47;10.75;;;5.82;;
22298;SDS011;11317;51.072;17.036;2023-11-19T10:47:14;15.63;;;5.82;;
22298;SDS011;11317;51.072;17.036;2023-11-19T10:49:43;8.73;;;4.68;;
22298;SDS011;11317;51.072;17.036;2023-11-19T10:52:11;11.32;;;6.10;;
22298;SDS011;11317;51.072;17.036;2023-11-19T10:54:39;12.93;;;6.70;;
22298;SDS011;11317;51.072;17.036;2023-11-19T10:57:09;7.78;;;4.40;;
22298;SDS011;11317;51.072;17.036;2023-11-19T10:59:37;7.88;;;4.38;;
22298;SDS011;11317;51.072;17.036;2023-11-19T11:02:06;7.95;;;5.20;;
22298;SDS011;11317;51.072;17.036;2023-11-19T11:04:40;8.13;;;4.80;;
22298;SDS011;11317;51.072;17.036;2023-11-19T11:07:07;9.52;;;4.60;;
22298;SDS011;11317;51.072;17.036;2023-11-19T11:09:34;7.88;;;4.53;;
22298;SDS011;11317;51.072;17.036;2023-11-19T11:12:00;8.70;;;4.28;;
22298;SDS011;11317;51.072;17.036;2023-11-19T11:14:30;3.58;;;2.78;;
22298;SDS011;11317;51.072;17.036;2023-11-19T11:16:57;5.45;;;3.03;;
22298;SDS011;11317;51.072;17.036;2023-11-19T11:19:23;5.35;;;2.92;;
22298;SDS011;11317;51.072;17.036;2023-11-19T11:21:50;4.32;;;2.58;;
22298;SDS011;11317;51.072;17.036;2023-11-19T11:38:15;3.33;;;2.45;;
22298;SDS011;11317;51.072;17.036;2023-11-19T11:43:50;5.15;;;2.42;;
22298;SDS011;11317;51.072;17.036;2023-11-19T11:49:05;4.72;;;2.40;;
22298;SDS011;11317;51.072;17.036;2023-11-19T12:02:10;9.75;;;4.22;;
22298;SDS011;11317;51.072;17.036;2023-11-19T12:04:39;6.63;;;3.97;;
22298;SDS011;11317;51.072;17.036;2023-11-19T12:07:12;8.27;;;5.18;;
22298;SDS011;11317;51.072;17.036;2023-11-19T12:09:42;5.43;;;3.92;;
22298;SDS011;11317;51.072;17.036;2023-11-19T12:12:23;5.53;;;3.33;;
22298;SDS011;11317;51.072;17.036;2023-11-19T12:15:10;6.97;;;3.05;;
22298;SDS011;11317;51.072;17.036;2023-11-19T12:20:06;4.30;;;2.33;;
22298;SDS011;11317;51.072;17.036;2023-11-19T12:22:39;5.05;;;2.83;;
22298;SDS011;11317;51.072;17.036;2023-11-19T12:25:07;6.28;;;3.25;;
22298;SDS011;11317;51.072;17.036;2023-11-19T12:27:34;5.00;;;3.50;;
22298;SDS011;11317;51.072;17.036;2023-11-19T12:30:01;5.25;;;2.92;;
22298;SDS011;11317;51.072;17.036;2023-11-19T12:32:37;5.10;;;3.13;;
22298;SDS011;11317;51.072;17.036;2023-11-19T12:35:07;4.68;;;3.53;;
22298;SDS011;11317;51.072;17.036;2023-11-19T12:37:46;5.63;;;3.38;;
22298;SDS011;11317;51.072;17.036;2023-11-19T12:42:49;6.47;;;3.88;;
22298;SDS011;11317;51.072;17.036;2023-11-19T12:45:16;5.28;;;3.42;;
22298;SDS011;11317;51.072;17.036;2023-11-19T12:47:44;9.20;;;4.07;;
22298;SDS011;11317;51.072;17.036;2023-11-19T12:50:12;8.05;;;4.28;;
22298;SDS011;11317;51.072;17.036;2023-11-19T12:52:39;9.30;;;4.72;;
22298;SDS011;11317;51.072;17.036;2023-11-19T12:55:06;7.13;;;4.63;;
22298;SDS011;11317;51.072;17.036;2023-11-19T12:57:53;8.38;;;5.18;;
22298;SDS011;11317;51.072;17.036;2023-11-19T13:00:21;8.68;;;5.50;;
22298;SDS011;11317;51.072;17.036;2023-11-19T13:02:48;7.10;;;4.60;;
22298;SDS011;11317;51.072;17.036;2023-11-19T13:05:25;8.95;;;5.00;;
22298;SDS011;11317;51.072;17.036;2023-11-19T13:07:58;6.63;;;4.18;;
22298;SDS011;11317;51.072;17.036;2023-11-19T13:10:27;10.57;;;5.18;;
22298;SDS011;11317;51.072;17.036;2023-11-19T13:13:00;15.25;;;5.90;;
22298;SDS011;11317;51.072;17.036;2023-11-19T13:15:27;14.15;;;6.20;;
22298;SDS011;11317;51.072;17.036;2023-11-19T13:17:53;15.68;;;7.25;;
22298;SDS011;11317;51.072;17.036;2023-11-19T13:20:19;16.17;;;7.38;;
22298;SDS011;11317;51.072;17.036;2023-11-19T13:22:55;10.32;;;4.35;;
22298;SDS011;11317;51.072;17.036;2023-11-19T13:25:22;9.10;;;4.45;;
22298;SDS011;11317;51.072;17.036;2023-11-19T13:27:48;9.18;;;4.60;;
22298;SDS011;11317;51.072;17.036;2023-11-19T13:30:14;12.13;;;6.07;;
22298;SDS011;11317;51.072;17.036;2023-11-19T13:32:41;21.65;;;9.80;;
22298;SDS011;11317;51.072;17.036;2023-11-19T13:35:08;19.15;;;7.82;;
22298;SDS011;11317;51.072;17.036;2023-11-19T13:37:35;10.82;;;6.30;;
22298;SDS011;11317;51.072;17.036;2023-11-19T13:40:01;12.75;;;5.45;;
22298;SDS011;11317;51.072;17.036;2023-11-19T13:42:27;10.90;;;5.00;;
22298;SDS011;11317;51.072;17.036;2023-11-19T13:44:53;7.70;;;4.82;;
22298;SDS011;11317;51.072;17.036;2023-11-19T13:47:21;11.63;;;5.55;;
22298;SDS011;11317;51.072;17.036;2023-11-19T13:49:49;12.25;;;5.13;;
22298;SDS011;11317;51.072;17.036;2023-11-19T13:52:15;9.93;;;5.18;;
22298;SDS011;11317;51.072;17.036;2023-11-19T13:54:42;15.43;;;6.80;;
22298;SDS011;11317;51.072;17.036;2023-11-19T13:57:08;13.55;;;6.47;;
22298;SDS011;11317;51.072;17.036;2023-11-19T13:59:39;13.93;;;6.47;;
22298;SDS011;11317;51.072;17.036;2023-11-19T14:02:05;14.48;;;7.18;;
22298;SDS011;11317;51.072;17.036;2023-11-19T14:04:32;12.23;;;6.55;;
22298;SDS011;11317;51.072;17.036;2023-11-19T14:06:59;13.95;;;6.88;;
22298;SDS011;11317;51.072;17.036;2023-11-19T14:09:25;11.73;;;5.40;;
22298;SDS011;11317;51.072;17.036;2023-11-19T14:11:51;13.88;;;6.03;;
22298;SDS011;11317;51.072;17.036;2023-11-19T14:14:17;8.32;;;4.57;;
22298;SDS011;11317;51.072;17.036;2023-11-19T14:16:43;10.82;;;5.85;;
22298;SDS011;11317;51.072;17.036;2023-11-19T14:19:09;6.07;;;3.63;;
22298;SDS011;11317;51.072;17.036;2023-11-19T14:21:35;8.27;;;4.45;;
22298;SDS011;11317;51.072;17.036;2023-11-19T14:24:02;8.15;;;3.85;;
22298;SDS011;11317;51.072;17.036;2023-11-19T14:26:28;3.85;;;2.25;;
22298;SDS011;11317;51.072;17.036;2023-11-19T14:28:54;5.47;;;2.78;;
22298;SDS011;11317;51.072;17.036;2023-11-19T14:31:20;4.25;;;2.50;;
22298;SDS011;11317;51.072;17.036;2023-11-19T14:33:46;4.70;;;2.45;;
22298;SDS011;11317;51.072;17.036;2023-11-19T14:36:13;5.28;;;2.70;;
22298;SDS011;11317;51.072;17.036;2023-11-19T14:38:39;3.72;;;2.45;;
22298;SDS011;11317;51.072;17.036;2023-11-19T14:41:05;3.72;;;2.67;;
22298;SDS011;11317;51.072;17.036;2023-11-19T14:43:32;10.60;;;3.60;;
22298;SDS011;11317;51.072;17.036;2023-11-19T14:45:58;6.82;;;3.15;;
22298;SDS011;11317;51.072;17.036;2023-11-19T14:48:24;6.43;;;2.90;;
22298;SDS011;11317;51.072;17.036;2023-11-19T14:50:50;9.63;;;2.80;;
22298;SDS011;11317;51.072;17.036;2023-11-19T14:53:17;5.95;;;3.13;;
22298;SDS011;11317;51.072;17.036;2023-11-19T14:55:44;7.05;;;2.97;;
22298;SDS011;11317;51.072;17.036;2023-11-19T14:58:10;6.80;;;2.67;;
22298;SDS011;11317;51.072;17.036;2023-11-19T15:00:36;5.88;;;2.78;;